createdAt,value
2023-02-04T00:08:40.876Z,85.13
2023-02-04T00:19:06.464Z,85.41
2023-02-04T00:30:13.806Z,85.56
2023-02-04T00:40:20.679Z,85.65
2023-02-04T00:50:25.412Z,85.88
2023-02-04T01:00:30.126Z,85.75
2023-02-04T01:10:34.946Z,85.57
2023-02-04T01:20:42.626Z,85.12
2023-02-04T01:30:52.711Z,84.96
2023-02-04T01:41:09.429Z,85.18
2023-02-04T01:51:17.695Z,85.11
2023-02-04T02:01:38.255Z,85.44
2023-02-04T02:11:44.942Z,85.04
2023-02-04T02:22:26.068Z,84.98
2023-02-04T02:32:30.426Z,85.32
2023-02-04T02:43:12.646Z,85.28
2023-02-04T02:53:19.833Z,85.58
2023-02-04T03:03:29.987Z,85.67
2023-02-04T03:13:37.957Z,85.38
2023-02-04T03:23:42.410Z,85.28
2023-02-04T03:33:50.570Z,84.85
2023-02-04T03:43:57.605Z,84.70
2023-02-04T03:54:28.699Z,84.79
2023-02-04T04:04:55.501Z,85.24
2023-02-04T04:15:11.597Z,85.27
2023-02-04T04:25:15.734Z,85.30
2023-02-04T04:35:20.394Z,85.39
2023-02-04T04:45:24.440Z,85.57
2023-02-04T04:55:28.853Z,86.06
2023-02-04T05:05:32.772Z,86.30
2023-02-04T05:15:36.824Z,85.66
2023-02-04T05:25:40.928Z,86.93
2023-02-04T05:35:44.771Z,93.23
2023-02-04T05:45:51.141Z,99.49
2023-02-04T05:55:55.123Z,99.90
2023-02-04T06:06:02.445Z,99.32
2023-02-04T06:16:09.654Z,99.89
2023-02-04T06:26:13.877Z,100.00
2023-02-04T06:36:17.917Z,100.00
2023-02-04T06:46:22.195Z,100.00
2023-02-04T06:56:29.615Z,100.00
2023-02-04T07:06:33.617Z,100.00
2023-02-04T07:16:38.385Z,100.00
2023-02-04T07:26:42.339Z,100.00
2023-02-04T07:36:46.659Z,100.00
2023-02-04T07:47:07.249Z,100.00
2023-02-04T07:57:11.708Z,100.00
2023-02-04T08:07:44.713Z,100.00
2023-02-04T08:18:11.819Z,100.00
2023-02-04T08:28:31.839Z,100.00
2023-02-04T08:38:38.982Z,100.00
2023-02-04T08:48:45.771Z,100.00
2023-02-04T08:58:50.272Z,100.00
2023-02-04T09:09:22.338Z,100.00
2023-02-04T09:19:27.869Z,100.00
2023-02-04T09:29:48.518Z,100.00
2023-02-04T09:40:17.475Z,100.00
2023-02-04T09:50:28.033Z,100.00
2023-02-04T10:00:38.157Z,100.00
2023-02-04T10:10:52.892Z,100.00
2023-02-04T10:21:30.274Z,100.00
2023-02-04T10:31:43.375Z,100.00
2023-02-04T10:42:01.367Z,100.00
2023-02-04T10:52:29.724Z,100.00
2023-02-04T11:02:55.477Z,100.00
2023-02-04T11:13:03.403Z,100.00
2023-02-04T11:23:39.927Z,100.00
2023-02-04T11:34:08.278Z,100.00
2023-02-04T11:44:17.256Z,100.00
2023-02-04T11:54:34.339Z,100.00
2023-02-04T12:04:48.671Z,100.00
2023-02-04T12:15:24.357Z,100.00
2023-02-04T12:25:47.824Z,100.00
2023-02-04T12:36:03.856Z,99.02
2023-02-04T12:46:18.385Z,98.78
2023-02-04T12:56:53.892Z,97.04
2023-02-04T13:08:00.764Z,94.17
2023-02-04T13:18:34.481Z,92.26
2023-02-04T13:28:54.400Z,90.11
2023-02-04T13:39:11.182Z,90.59
2023-02-04T13:49:31.011Z,86.71
2023-02-04T14:00:02.027Z,85.16
2023-02-04T14:10:56.915Z,85.23
2023-02-04T14:21:54.871Z,83.37
2023-02-04T14:32:02.226Z,82.07
2023-02-04T14:42:24.873Z,78.69
2023-02-04T14:52:35.856Z,77.73
2023-02-04T15:03:09.543Z,75.96
2023-02-04T15:13:14.358Z,77.49
2023-02-04T15:23:51.969Z,77.97
2023-02-04T15:34:20.334Z,78.65
2023-02-04T15:45:10.830Z,78.81
2023-02-04T15:56:19.954Z,78.76
2023-02-04T16:07:08.334Z,79.59
2023-02-04T16:17:37.181Z,78.67
2023-02-04T16:28:20.735Z,78.31
2023-02-04T16:38:59.819Z,78.57
2023-02-04T16:49:38.270Z,78.73
2023-02-04T17:00:37.658Z,78.83
2023-02-04T17:11:37.495Z,79.95
2023-02-04T17:22:38.526Z,80.31
2023-02-04T17:33:27.665Z,80.74
2023-02-04T17:44:25.274Z,80.45
2023-02-04T17:55:43.010Z,80.36
2023-02-04T18:05:58.788Z,80.55
2023-02-04T18:16:42.079Z,80.48
2023-02-04T18:27:06.023Z,80.38
2023-02-04T18:37:52.178Z,80.93
2023-02-04T18:48:20.495Z,81.06
2023-02-04T18:58:39.438Z,81.69
2023-02-04T19:09:44.752Z,81.98
2023-02-04T19:20:22.225Z,81.61
2023-02-04T19:31:16.400Z,81.65
2023-02-04T19:42:01.822Z,84.57
2023-02-04T19:53:02.615Z,90.56
2023-02-04T20:03:48.047Z,90.93
2023-02-04T20:14:22.401Z,88.82
2023-02-04T20:25:20.223Z,85.71
2023-02-04T20:35:53.500Z,83.60
2023-02-04T20:46:24.180Z,82.84
2023-02-04T20:57:00.716Z,82.30
2023-02-04T21:07:46.716Z,81.86
2023-02-04T21:18:58.707Z,82.09
2023-02-04T21:29:38.715Z,81.71
2023-02-04T21:40:53.079Z,81.14
2023-02-04T21:51:27.135Z,80.38
2023-02-04T22:02:45.167Z,80.31
2023-02-04T22:14:00.185Z,80.21
2023-02-04T22:24:48.287Z,79.07
2023-02-04T22:35:17.472Z,78.72
2023-02-04T22:46:15.643Z,78.86
2023-02-04T22:57:05.270Z,79.17
2023-02-04T23:08:23.123Z,78.30
2023-02-04T23:19:40.052Z,78.69
2023-02-04T23:30:58.911Z,78.78
2023-02-04T23:42:05.579Z,78.92
2023-02-04T23:53:05.664Z,79.07
